sensor_id;sensor_type;location;lat;lon;timestamp;pressure;altitude;pressure_sealevel;temperature;humidity
46724;BME280;32463;48.298;11.620;2023-05-08T00:01:54;96545.91;;;13.96;100.00
46724;BME280;32463;48.298;11.620;2023-05-08T00:04:21;96546.25;;;13.93;100.00
46724;BME280;32463;48.298;11.620;2023-05-08T00:06:48;96542.66;;;13.94;100.00
46724;BME280;32463;48.298;11.620;2023-05-08T00:09:15;96548.38;;;13.90;100.00
46724;BME280;32463;48.298;11.620;2023-05-08T00:11:42;96541.06;;;13.85;100.00
46724;BME280;32463;48.298;11.620;2023-05-08T00:14:08;96541.06;;;13.85;100.00
46724;BME280;32463;48.298;11.620;2023-05-08T00:16:35;96548.59;;;13.80;100.00
46724;BME280;32463;48.298;11.620;2023-05-08T00:19:01;96553.81;;;13.80;100.00
46724;BME280;32463;48.298;11.620;2023-05-08T00:21:28;96559.19;;;13.78;100.00
46724;BME280;32463;48.298;11.620;2023-05-08T00:23:55;96560.06;;;13.71;100.00
46724;BME280;32463;48.298;11.620;2023-05-08T00:26:21;96559.28;;;13.70;100.00
46724;BME280;32463;48.298;11.620;2023-05-08T00:28:48;96561.22;;;13.68;100.00
46724;BME280;32463;48.298;11.620;2023-05-08T00:31:14;96566.31;;;13.62;100.00
46724;BME280;32463;48.298;11.620;2023-05-08T00:33:41;96575.44;;;13.58;100.00
46724;BME280;32463;48.298;11.620;2023-05-08T00:36:07;96571.84;;;13.59;100.00
46724;BME280;32463;48.298;11.620;2023-05-08T00:38:34;96570.56;;;13.55;100.00
46724;BME280;32463;48.298;11.620;2023-05-08T00:41:01;96572.53;;;13.53;100.00
46724;BME280;32463;48.298;11.620;2023-05-08T00:43:28;96569.63;;;13.47;100.00
46724;BME280;32463;48.298;11.620;2023-05-08T00:45:56;96568.00;;;13.46;100.00
46724;BME280;32463;48.298;11.620;2023-05-08T00:48:24;96572.59;;;13.44;100.00
46724;BME280;32463;48.298;11.620;2023-05-08T00:50:54;96569.19;;;13.44;100.00
46724;BME280;32463;48.298;11.620;2023-05-08T00:53:21;96561.53;;;13.42;100.00
46724;BME280;32463;48.298;11.620;2023-05-08T00:55:50;96566.38;;;13.45;100.00
46724;BME280;32463;48.298;11.620;2023-05-08T00:58:22;96563.16;;;13.43;100.00
46724;BME280;32463;48.298;11.620;2023-05-08T01:00:52;96562.78;;;13.46;100.00
46724;BME280;32463;48.298;11.620;2023-05-08T01:03:21;96572.59;;;13.44;100.00
46724;BME280;32463;48.298;11.620;2023-05-08T01:05:47;96569.53;;;13.41;100.00
46724;BME280;32463;48.298;11.620;2023-05-08T01:08:14;96570.34;;;13.41;100.00
46724;BME280;32463;48.298;11.620;2023-05-08T01:16:05;96561.56;;;13.34;100.00
46724;BME280;32463;48.298;11.620;2023-05-08T01:19:03;96562.56;;;13.33;100.00
46724;BME280;32463;48.298;11.620;2023-05-08T01:27:52;96566.00;;;13.26;100.00
46724;BME280;32463;48.298;11.620;2023-05-08T01:33:16;96581.78;;;13.24;100.00
46724;BME280;32463;48.298;11.620;2023-05-08T01:35:50;96584.38;;;13.24;100.00
46724;BME280;32463;48.298;11.620;2023-05-08T01:38:36;96586.34;;;13.22;100.00
46724;BME280;32463;48.298;11.620;2023-05-08T01:41:12;96585.06;;;13.18;100.00
46724;BME280;32463;48.298;11.620;2023-05-08T01:43:47;96589.28;;;13.19;100.00
46724;BME280;32463;48.298;11.620;2023-05-08T01:46:23;96588.97;;;13.14;100.00
46724;BME280;32463;48.298;11.620;2023-05-08T01:48:59;96592.56;;;13.13;100.00
46724;BME280;32463;48.298;11.620;2023-05-08T01:51:41;96597.44;;;13.08;100.00
46724;BME280;32463;48.298;11.620;2023-05-08T01:54:14;96600.38;;;13.05;100.00
46724;BME280;32463;48.298;11.620;2023-05-08T01:56:42;96602.34;;;13.03;100.00
46724;BME280;32463;48.298;11.620;2023-05-08T01:59:14;96600.06;;;13.00;100.00
46724;BME280;32463;48.298;11.620;2023-05-08T02:01:43;96603.47;;;13.00;100.00
46724;BME280;32463;48.298;11.620;2023-05-08T02:04:11;96607.88;;;13.00;100.00
46724;BME280;32463;48.298;11.620;2023-05-08T02:06:39;96606.91;;;12.93;100.00
46724;BME280;32463;48.298;11.620;2023-05-08T02:09:08;96608.19;;;12.97;100.00
46724;BME280;32463;48.298;11.620;2023-05-08T02:11:40;96607.06;;;12.91;100.00
46724;BME280;32463;48.298;11.620;2023-05-08T02:14:07;96614.06;;;12.91;100.00
46724;BME280;32463;48.298;11.620;2023-05-08T02:16:35;96609.06;;;12.81;100.00
46724;BME280;32463;48.298;11.620;2023-05-08T02:19:03;96607.59;;;12.78;100.00
46724;BME280;32463;48.298;11.620;2023-05-08T02:21:32;96610.53;;;12.75;100.00
46724;BME280;32463;48.298;11.620;2023-05-08T02:24:01;96611.66;;;12.73;100.00
46724;BME280;32463;48.298;11.620;2023-05-08T02:26:30;96615.41;;;12.70;100.00
46724;BME280;32463;48.298;11.620;2023-05-08T02:28:59;96622.88;;;12.73;100.00
46724;BME280;32463;48.298;11.620;2023-05-08T02:31:28;96612.47;;;12.73;100.00
46724;BME280;32463;48.298;11.620;2023-05-08T02:33:56;96615.72;;;12.75;100.00
46724;BME280;32463;48.298;11.620;2023-05-08T02:36:25;96613.47;;;12.64;100.00
46724;BME280;32463;48.298;11.620;2023-05-08T02:38:55;96619.00;;;12.53;100.00
46724;BME280;32463;48.298;11.620;2023-05-08T02:41:26;96619.50;;;12.48;100.00
46724;BME280;32463;48.298;11.620;2023-05-08T02:43:54;96628.75;;;12.43;100.00
46724;BME280;32463;48.298;11.620;2023-05-08T02:46:35;96630.06;;;12.39;100.00
46724;BME280;32463;48.298;11.620;2023-05-08T02:51:53;96640.13;;;12.26;100.00
46724;BME280;32463;48.298;11.620;2023-05-08T02:54:24;96632.81;;;12.21;100.00
46724;BME280;32463;48.298;11.620;2023-05-08T02:56:59;96636.06;;;12.15;100.00
46724;BME280;32463;48.298;11.620;2023-05-08T02:59:30;96636.19;;;12.05;100.00
46724;BME280;32463;48.298;11.620;2023-05-08T03:02:17;96629.34;;;11.96;100.00
46724;BME280;32463;48.298;11.620;2023-05-08T03:04:52;96634.72;;;11.87;100.00
46724;BME280;32463;48.298;11.620;2023-05-08T03:07:22;96636.47;;;11.78;100.00
46724;BME280;32463;48.298;11.620;2023-05-08T03:09:56;96628.31;;;11.73;100.00
46724;BME280;32463;48.298;11.620;2023-05-08T03:12:26;96635.44;;;11.71;100.00
46724;BME280;32463;48.298;11.620;2023-05-08T03:15:06;96621.81;;;11.69;100.00
46724;BME280;32463;48.298;11.620;2023-05-08T03:17:34;96631.03;;;11.63;100.00
46724;BME280;32463;48.298;11.620;2023-05-08T03:20:04;96618.84;;;11.64;100.00
46724;BME280;32463;48.298;11.620;2023-05-08T03:22:34;96633.47;;;11.57;100.00
46724;BME280;32463;48.298;11.620;2023-05-08T03:25:04;96629.41;;;11.54;100.00
46724;BME280;32463;48.298;11.620;2023-05-08T03:27:32;96631.94;;;11.46;100.00
46724;BME280;32463;48.298;11.620;2023-05-08T03:30:01;96635.81;;;11.42;100.00
46724;BME280;32463;48.298;11.620;2023-05-08T03:32:28;96632.56;;;11.40;100.00
46724;BME280;32463;48.298;11.620;2023-05-08T03:34:57;96635.97;;;11.40;100.00
46724;BME280;32463;48.298;11.620;2023-05-08T03:37:27;96635.69;;;11.43;100.00
46724;BME280;32463;48.298;11.620;2023-05-08T03:39:55;96637.41;;;11.35;100.00
46724;BME280;32463;48.298;11.620;2023-05-08T03:42:25;96649.09;;;11.31;100.00
46724;BME280;32463;48.298;11.620;2023-05-08T03:44:52;96645.84;;;11.29;100.00
46724;BME280;32463;48.298;11.620;2023-05-08T03:47:20;96644.03;;;11.21;100.00
46724;BME280;32463;48.298;11.620;2023-05-08T03:49:49;96655.66;;;11.17;100.00
46724;BME280;32463;48.298;11.620;2023-05-08T03:52:15;96647.88;;;11.17;100.00
46724;BME280;32463;48.298;11.620;2023-05-08T03:54:42;96654.19;;;11.14;100.00
46724;BME280;32463;48.298;11.620;2023-05-08T03:57:09;96652.41;;;11.15;100.00
46724;BME280;32463;48.298;11.620;2023-05-08T04:02:14;96658.25;;;11.17;100.00
46724;BME280;32463;48.298;11.620;2023-05-08T04:04:45;96660.00;;;11.08;100.00
46724;BME280;32463;48.298;11.620;2023-05-08T04:07:19;96657.81;;;10.96;100.00
46724;BME280;32463;48.298;11.620;2023-05-08T04:13:00;96660.97;;;10.82;100.00
46724;BME280;32463;48.298;11.620;2023-05-08T04:15:32;96663.25;;;10.85;100.00
46724;BME280;32463;48.298;11.620;2023-05-08T04:18:05;96656.22;;;10.77;100.00
46724;BME280;32463;48.298;11.620;2023-05-08T04:20:32;96671.78;;;10.77;100.00
46724;BME280;32463;48.298;11.620;2023-05-08T04:22:59;96672.59;;;10.77;100.00
46724;BME280;32463;48.298;11.620;2023-05-08T04:25:27;96674.38;;;10.77;100.00
46724;BME280;32463;48.298;11.620;2023-05-08T04:27:54;96667.72;;;10.74;100.00
46724;BME280;32463;48.298;11.620;2023-05-08T04:30:23;96674.22;;;10.78;100.00
46724;BME280;32463;48.298;11.620;2023-05-08T04:32:50;96667.06;;;10.72;100.00
46724;BME280;32463;48.298;11.620;2023-05-08T04:35:17;96680.09;;;10.80;100.00
46724;BME280;32463;48.298;11.620;2023-05-08T04:37:45;96676.88;;;10.87;100.00
46724;BME280;32463;48.298;11.620;2023-05-08T04:40:12;96677.72;;;10.87;100.00
46724;BME280;32463;48.298;11.620;2023-05-08T04:42:38;96680.50;;;10.94;100.00
46724;BME280;32463;48.298;11.620;2023-05-08T04:45:07;96685.03;;;10.92;100.00
46724;BME280;32463;48.298;11.620;2023-05-08T04:47:34;96680.88;;;10.99;100.00
46724;BME280;32463;48.298;11.620;2023-05-08T04:50:01;96687.22;;;11.04;100.00
46724;BME280;32463;48.298;11.620;2023-05-08T04:52:27;96683.31;;;11.00;100.00
46724;BME280;32463;48.298;11.620;2023-05-08T04:54:54;96690.09;;;11.01;100.00
46724;BME280;32463;48.298;11.620;2023-05-08T04:57:20;96690.75;;;10.95;100.00
46724;BME280;32463;48.298;11.620;2023-05-08T04:59:46;96701.50;;;11.08;100.00
46724;BME280;32463;48.298;11.620;2023-05-08T05:02:13;96698.56;;;11.03;100.00
46724;BME280;32463;48.298;11.620;2023-05-08T05:04:40;96704.56;;;11.04;100.00
46724;BME280;32463;48.298;11.620;2023-05-08T05:07:06;96704.91;;;11.09;100.00
46724;BME280;32463;48.298;11.620;2023-05-08T05:09:33;96707.22;;;11.12;100.00
46724;BME280;32463;48.298;11.620;2023-05-08T05:12:02;96704.63;;;11.12;100.00
46724;BME280;32463;48.298;11.620;2023-05-08T05:14:28;96709.56;;;11.23;100.00
46724;BME280;32463;48.298;11.620;2023-05-08T05:16:55;96708.00;;;11.38;100.00
46724;BME280;32463;48.298;11.620;2023-05-08T05:19:21;96716.47;;;11.40;100.00
46724;BME280;32463;48.298;11.620;2023-05-08T05:21:48;96716.88;;;11.28;100.00
46724;BME280;32463;48.298;11.620;2023-05-08T05:24:14;96729.50;;;11.23;100.00
46724;BME280;32463;48.298;11.620;2023-05-08T05:26:41;96728.69;;;11.22;100.00
46724;BME280;32463;48.298;11.620;2023-05-08T05:29:07;96726.09;;;11.22;100.00
46724;BME280;32463;48.298;11.620;2023-05-08T05:31:33;96731.00;;;11.33;100.00
46724;BME280;32463;48.298;11.620;2023-05-08T05:34:00;96726.03;;;11.40;100.00
46724;BME280;32463;48.298;11.620;2023-05-08T05:36:26;96733.34;;;11.44;100.00
46724;BME280;32463;48.298;11.620;2023-05-08T05:38:53;96724.28;;;11.48;100.00
46724;BME280;32463;48.298;11.620;2023-05-08T05:41:20;96733.97;;;11.38;100.00
46724;BME280;32463;48.298;11.620;2023-05-08T05:43:46;96736.91;;;11.43;100.00
46724;BME280;32463;48.298;11.620;2023-05-08T05:46:13;96730.97;;;11.51;100.00
46724;BME280;32463;48.298;11.620;2023-05-08T05:48:39;96740.13;;;11.37;100.00
46724;BME280;32463;48.298;11.620;2023-05-08T05:51:06;96739.88;;;11.48;100.00
46724;BME280;32463;48.298;11.620;2023-05-08T05:53:33;96747.31;;;11.43;100.00
46724;BME280;32463;48.298;11.620;2023-05-08T05:55:59;96745.97;;;11.39;100.00
46724;BME280;32463;48.298;11.620;2023-05-08T05:58:26;96750.88;;;11.42;100.00
46724;BME280;32463;48.298;11.620;2023-05-08T06:00:53;96749.19;;;11.33;100.00
46724;BME280;32463;48.298;11.620;2023-05-08T06:03:19;96748.44;;;11.15;100.00
46724;BME280;32463;48.298;11.620;2023-05-08T06:05:46;96745.28;;;11.29;100.00
46724;BME280;32463;48.298;11.620;2023-05-08T06:08:13;96753.09;;;11.37;100.00
46724;BME280;32463;48.298;11.620;2023-05-08T06:10:40;96754.72;;;11.30;100.00
46724;BME280;32463;48.298;11.620;2023-05-08T06:13:06;96750.63;;;11.28;100.00
46724;BME280;32463;48.298;11.620;2023-05-08T06:15:34;96744.81;;;11.34;100.00
46724;BME280;32463;48.298;11.620;2023-05-08T06:18:00;96751.47;;;11.36;100.00
46724;BME280;32463;48.298;11.620;2023-05-08T06:20:27;96755.44;;;11.48;100.00
46724;BME280;32463;48.298;11.620;2023-05-08T06:22:53;96748.84;;;11.54;100.00
46724;BME280;32463;48.298;11.620;2023-05-08T06:25:20;96751.34;;;11.72;100.00
46724;BME280;32463;48.298;11.620;2023-05-08T06:27:46;96760.84;;;11.81;100.00
46724;BME280;32463;48.298;11.620;2023-05-08T06:30:13;96760.63;;;11.74;100.00
46724;BME280;32463;48.298;11.620;2023-05-08T06:32:39;96762.13;;;11.77;100.00
46724;BME280;32463;48.298;11.620;2023-05-08T06:35:06;96772.13;;;11.72;100.00
46724;BME280;32463;48.298;11.620;2023-05-08T06:37:33;96766.84;;;11.56;100.00
46724;BME280;32463;48.298;11.620;2023-05-08T06:39:59;96771.78;;;11.41;100.00
46724;BME280;32463;48.298;11.620;2023-05-08T06:42:26;96768.97;;;11.34;100.00
46724;BME280;32463;48.298;11.620;2023-05-08T06:44:52;96768.88;;;11.18;100.00
46724;BME280;32463;48.298;11.620;2023-05-08T06:47:19;96771.13;;;11.13;100.00
46724;BME280;32463;48.298;11.620;2023-05-08T06:49:45;96762.59;;;11.21;100.00
46724;BME280;32463;48.298;11.620;2023-05-08T06:52:12;96767.97;;;11.27;100.00
46724;BME280;32463;48.298;11.620;2023-05-08T06:54:38;96761.47;;;11.23;100.00
46724;BME280;32463;48.298;11.620;2023-05-08T06:57:05;96766.22;;;11.10;100.00
46724;BME280;32463;48.298;11.620;2023-05-08T06:59:32;96775.03;;;11.17;100.00
46724;BME280;32463;48.298;11.620;2023-05-08T07:01:59;96767.69;;;11.30;100.00
46724;BME280;32463;48.298;11.620;2023-05-08T07:04:25;96769.63;;;11.28;100.00
46724;BME280;32463;48.298;11.620;2023-05-08T07:06:52;96775.09;;;11.51;100.00
46724;BME280;32463;48.298;11.620;2023-05-08T07:09:18;96772.06;;;11.30;100.00
46724;BME280;32463;48.298;11.620;2023-05-08T07:11:45;96773.19;;;11.27;100.00
46724;BME280;32463;48.298;11.620;2023-05-08T07:14:12;96777.03;;;11.23;100.00
46724;BME280;32463;48.298;11.620;2023-05-08T07:16:38;96775.63;;;11.29;100.00
46724;BME280;32463;48.298;11.620;2023-05-08T07:19:05;96766.66;;;11.23;100.00
46724;BME280;32463;48.298;11.620;2023-05-08T07:21:31;96770.38;;;11.46;100.00
46724;BME280;32463;48.298;11.620;2023-05-08T07:23:58;96776.59;;;11.62;100.00
46724;BME280;32463;48.298;11.620;2023-05-08T07:26:25;96776.50;;;11.71;100.00
46724;BME280;32463;48.298;11.620;2023-05-08T07:28:51;96771.25;;;11.63;100.00
46724;BME280;32463;48.298;11.620;2023-05-08T07:31:19;96778.38;;;11.53;100.00
46724;BME280;32463;48.298;11.620;2023-05-08T07:33:46;96787.72;;;11.72;100.00
46724;BME280;32463;48.298;11.620;2023-05-08T07:36:13;96788.66;;;11.89;100.00
46724;BME280;32463;48.298;11.620;2023-05-08T07:38:39;96793.16;;;12.21;100.00
46724;BME280;32463;48.298;11.620;2023-05-08T07:41:05;96792.16;;;12.13;100.00
46724;BME280;32463;48.298;11.620;2023-05-08T07:43:32;96788.97;;;12.36;100.00
46724;BME280;32463;48.298;11.620;2023-05-08T07:45:58;96800.75;;;12.64;100.00
46724;BME280;32463;48.298;11.620;2023-05-08T07:48:25;96795.84;;;12.61;100.00
46724;BME280;32463;48.298;11.620;2023-05-08T07:50:51;96791.66;;;12.68;100.00
46724;BME280;32463;48.298;11.620;2023-05-08T07:53:18;96792.16;;;12.72;100.00
46724;BME280;32463;48.298;11.620;2023-05-08T07:55:44;96796.66;;;12.62;100.00
46724;BME280;32463;48.298;11.620;2023-05-08T07:58:11;96797.16;;;12.49;100.00
46724;BME280;32463;48.298;11.620;2023-05-08T08:00:37;96791.25;;;12.39;100.00
46724;BME280;32463;48.298;11.620;2023-05-08T08:03:05;96787.78;;;12.80;100.00
46724;BME280;32463;48.298;11.620;2023-05-08T08:05:31;96783.38;;;13.05;100.00
46724;BME280;32463;48.298;11.620;2023-05-08T08:07:58;96793.00;;;13.21;100.00
46724;BME280;32463;48.298;11.620;2023-05-08T08:10:24;96791.00;;;13.64;100.00
46724;BME280;32463;48.298;11.620;2023-05-08T08:12:51;96791.16;;;13.70;100.00
46724;BME280;32463;48.298;11.620;2023-05-08T08:15:17;96791.91;;;13.87;100.00
46724;BME280;32463;48.298;11.620;2023-05-08T08:17:44;96790.88;;;14.04;100.00
46724;BME280;32463;48.298;11.620;2023-05-08T08:20:10;96796.81;;;13.82;100.00
46724;BME280;32463;48.298;11.620;2023-05-08T08:22:37;96781.56;;;13.55;100.00
46724;BME280;32463;48.298;11.620;2023-05-08T08:25:04;96789.31;;;14.26;100.00
46724;BME280;32463;48.298;11.620;2023-05-08T08:27:30;96778.31;;;14.39;100.00
46724;BME280;32463;48.298;11.620;2023-05-08T08:29:57;96772.53;;;14.29;100.00
46724;BME280;32463;48.298;11.620;2023-05-08T08:32:23;96784.78;;;14.59;100.00
46724;BME280;32463;48.298;11.620;2023-05-08T08:34:50;96787.47;;;14.04;100.00
46724;BME280;32463;48.298;11.620;2023-05-08T08:37:16;96795.19;;;13.81;100.00
46724;BME280;32463;48.298;11.620;2023-05-08T08:39:43;96789.25;;;14.03;100.00
46724;BME280;32463;48.298;11.620;2023-05-08T08:42:09;96791.69;;;14.44;100.00
46724;BME280;32463;48.298;11.620;2023-05-08T08:44:36;96790.38;;;14.40;100.00
46724;BME280;32463;48.298;11.620;2023-05-08T08:47:04;96789.63;;;13.84;100.00
46724;BME280;32463;48.298;11.620;2023-05-08T08:49:34;96791.88;;;13.95;100.00
46724;BME280;32463;48.298;11.620;2023-05-08T08:52:38;96790.38;;;14.40;100.00
46724;BME280;32463;48.298;11.620;2023-05-08T08:55:07;96793.38;;;13.90;100.00
46724;BME280;32463;48.298;11.620;2023-05-08T08:57:35;96792.88;;;13.86;100.00
46724;BME280;32463;48.298;11.620;2023-05-08T09:00:06;96791.78;;;14.20;100.00
46724;BME280;32463;48.298;11.620;2023-05-08T09:02:33;96782.19;;;14.12;100.00
46724;BME280;32463;48.298;11.620;2023-05-08T09:05:00;96791.88;;;13.95;100.00
46724;BME280;32463;48.298;11.620;2023-05-08T09:07:27;96789.28;;;13.95;100.00
46724;BME280;32463;48.298;11.620;2023-05-08T09:09:55;96786.88;;;13.77;100.00
46724;BME280;32463;48.298;11.620;2023-05-08T09:12:22;96793.38;;;13.90;100.00
46724;BME280;32463;48.298;11.620;2023-05-08T09:14:49;96800.72;;;13.78;100.00
46724;BME280;32463;48.298;11.620;2023-05-08T09:17:16;96793.56;;;13.80;100.00
46724;BME280;32463;48.298;11.620;2023-05-08T09:19:42;96791.00;;;13.47;100.00
46724;BME280;32463;48.298;11.620;2023-05-08T09:22:10;96794.44;;;13.48;100.00
46724;BME280;32463;48.298;11.620;2023-05-08T09:27:23;96790.53;;;13.52;100.00
46724;BME280;32463;48.298;11.620;2023-05-08T09:32:31;96793.28;;;13.51;100.00
46724;BME280;32463;48.298;11.620;2023-05-08T09:34:58;96793.44;;;13.73;100.00
46724;BME280;32463;48.298;11.620;2023-05-08T09:37:26;96791.41;;;13.92;100.00
46724;BME280;32463;48.298;11.620;2023-05-08T09:39:53;96786.41;;;14.21;100.00
46724;BME280;32463;48.298;11.620;2023-05-08T09:42:19;96786.69;;;13.87;100.00
46724;BME280;32463;48.298;11.620;2023-05-08T09:44:49;96784.97;;;14.10;100.00
46724;BME280;32463;48.298;11.620;2023-05-08T09:47:18;96782.81;;;14.22;100.00
46724;BME280;32463;48.298;11.620;2023-05-08T09:50:03;96794.06;;;14.23;100.00
46724;BME280;32463;48.298;11.620;2023-05-08T09:52:31;96793.75;;;14.18;100.00
46724;BME280;32463;48.298;11.620;2023-05-08T09:55:08;96790.06;;;14.43;100.00
46724;BME280;32463;48.298;11.620;2023-05-08T09:57:39;96799.09;;;14.63;100.00
46724;BME280;32463;48.298;11.620;2023-05-08T10:00:17;96790.69;;;14.53;100.00
46724;BME280;32463;48.298;11.620;2023-05-08T10:02:56;96781.34;;;14.81;100.00
46724;BME280;32463;48.298;11.620;2023-05-08T10:05:30;96792.16;;;14.78;100.00
46724;BME280;32463;48.298;11.620;2023-05-08T10:08:16;96786.09;;;15.01;100.00
46724;BME280;32463;48.298;11.620;2023-05-08T10:10:43;96787.81;;;15.31;100.00
46724;BME280;32463;48.298;11.620;2023-05-08T10:13:09;96792.19;;;15.16;100.00
46724;BME280;32463;48.298;11.620;2023-05-08T10:15:37;96795.28;;;15.20;100.00
46724;BME280;32463;48.298;11.620;2023-05-08T10:18:07;96785.84;;;16.00;98.91
46724;BME280;32463;48.298;11.620;2023-05-08T10:20:38;96783.41;;;16.86;99.73
46724;BME280;32463;48.298;11.620;2023-05-08T10:23:10;96782.28;;;17.16;88.44
46724;BME280;32463;48.298;11.620;2023-05-08T10:25:47;96776.75;;;17.81;83.44
46724;BME280;32463;48.298;11.620;2023-05-08T10:28:32;96773.16;;;18.37;75.54
46724;BME280;32463;48.298;11.620;2023-05-08T10:31:03;96779.69;;;17.44;78.34
46724;BME280;32463;48.298;11.620;2023-05-08T10:33:34;96773.13;;;17.82;81.85
46724;BME280;32463;48.298;11.620;2023-05-08T10:36:00;96779.78;;;17.29;80.61
46724;BME280;32463;48.298;11.620;2023-05-08T10:38:27;96777.31;;;17.00;84.57
46724;BME280;32463;48.298;11.620;2023-05-08T10:40:59;96779.91;;;17.21;79.34
46724;BME280;32463;48.298;11.620;2023-05-08T10:43:28;96778.66;;;17.17;80.42
46724;BME280;32463;48.298;11.620;2023-05-08T10:45:56;96773.19;;;16.69;84.32
46724;BME280;32463;48.298;11.620;2023-05-08T10:53:54;96774.25;;;17.73;82.15
46724;BME280;32463;48.298;11.620;2023-05-08T10:56:28;96765.31;;;17.33;80.77
46724;BME280;32463;48.298;11.620;2023-05-08T10:58:58;96760.00;;;17.55;78.94
46724;BME280;32463;48.298;11.620;2023-05-08T11:01:25;96752.19;;;17.89;79.56
46724;BME280;32463;48.298;11.620;2023-05-08T11:03:52;96750.94;;;17.85;79.37
46724;BME280;32463;48.298;11.620;2023-05-08T11:06:42;96759.34;;;17.74;75.76
46724;BME280;32463;48.298;11.620;2023-05-08T11:09:13;96752.47;;;18.68;72.86
46724;BME280;32463;48.298;11.620;2023-05-08T11:11:41;96754.25;;;18.00;75.19
46724;BME280;32463;48.298;11.620;2023-05-08T11:14:15;96767.09;;;17.89;73.10
46724;BME280;32463;48.298;11.620;2023-05-08T11:19:23;96750.63;;;18.01;77.10
46724;BME280;32463;48.298;11.620;2023-05-08T11:22:13;96761.97;;;17.74;74.60
46724;BME280;32463;48.298;11.620;2023-05-08T11:24:48;96750.41;;;17.96;72.90
46724;BME280;32463;48.298;11.620;2023-05-08T11:27:15;96754.00;;;18.43;73.25
46724;BME280;32463;48.298;11.620;2023-05-08T11:29:41;96744.91;;;18.39;71.11
46724;BME280;32463;48.298;11.620;2023-05-08T11:32:09;96743.91;;;18.40;73.34
46724;BME280;32463;48.298;11.620;2023-05-08T11:34:43;96737.38;;;18.83;72.10
46724;BME280;32463;48.298;11.620;2023-05-08T11:37:11;96739.59;;;19.00;75.18
46724;BME280;32463;48.298;11.620;2023-05-08T11:39:41;96735.97;;;18.88;70.37
46724;BME280;32463;48.298;11.620;2023-05-08T11:42:37;96745.63;;;18.74;71.47
46724;BME280;32463;48.298;11.620;2023-05-08T11:45:12;96734.22;;;18.34;71.17
46724;BME280;32463;48.298;11.620;2023-05-08T11:47:41;96732.91;;;19.43;67.15
46724;BME280;32463;48.298;11.620;2023-05-08T11:50:09;96734.13;;;18.81;68.10
46724;BME280;32463;48.298;11.620;2023-05-08T11:52:39;96742.25;;;19.20;66.71
46724;BME280;32463;48.298;11.620;2023-05-08T11:55:07;96744.44;;;19.49;67.75
46724;BME280;32463;48.298;11.620;2023-05-08T11:57:34;96743.06;;;19.20;67.46
46724;BME280;32463;48.298;11.620;2023-05-08T12:00:08;96741.78;;;19.82;66.27
46724;BME280;32463;48.298;11.620;2023-05-08T12:05:01;96734.81;;;20.07;62.09
46724;BME280;32463;48.298;11.620;2023-05-08T12:07:28;96732.63;;;20.80;60.30
46724;BME280;32463;48.298;11.620;2023-05-08T12:09:55;96739.19;;;19.69;62.45
46724;BME280;32463;48.298;11.620;2023-05-08T12:12:22;96739.16;;;19.82;62.94
46724;BME280;32463;48.298;11.620;2023-05-08T12:14:49;96737.84;;;20.56;60.39
46724;BME280;32463;48.298;11.620;2023-05-08T12:17:16;96742.34;;;19.91;61.65
46724;BME280;32463;48.298;11.620;2023-05-08T12:19:44;96735.97;;;19.40;62.41
46724;BME280;32463;48.298;11.620;2023-05-08T12:22:10;96740.91;;;20.52;60.03
46724;BME280;32463;48.298;11.620;2023-05-08T12:24:38;96741.66;;;20.66;60.27
46724;BME280;32463;48.298;11.620;2023-05-08T12:27:04;96739.50;;;20.05;63.88
46724;BME280;32463;48.298;11.620;2023-05-08T12:29:34;96735.00;;;20.12;60.58
46724;BME280;32463;48.298;11.620;2023-05-08T12:32:01;96741.94;;;20.00;61.44
46724;BME280;32463;48.298;11.620;2023-05-08T12:34:27;96734.25;;;20.81;59.47
46724;BME280;32463;48.298;11.620;2023-05-08T12:37:01;96733.81;;;20.84;58.23
46724;BME280;32463;48.298;11.620;2023-05-08T12:39:33;96734.25;;;19.92;58.34
46724;BME280;32463;48.298;11.620;2023-05-08T12:42:00;96742.00;;;19.67;60.34
46724;BME280;32463;48.298;11.620;2023-05-08T12:44:28;96741.22;;;19.14;62.46
46724;BME280;32463;48.298;11.620;2023-05-08T12:46:56;96734.75;;;19.43;62.65
46724;BME280;32463;48.298;11.620;2023-05-08T12:49:30;96729.88;;;19.40;63.20
46724;BME280;32463;48.298;11.620;2023-05-08T12:52:11;96738.19;;;19.17;63.09
46724;BME280;32463;48.298;11.620;2023-05-08T12:54:40;96739.38;;;18.81;65.18
46724;BME280;32463;48.298;11.620;2023-05-08T12:57:13;96733.63;;;18.45;66.06
46724;BME280;32463;48.298;11.620;2023-05-08T12:59:40;96739.38;;;18.81;67.78
46724;BME280;32463;48.298;11.620;2023-05-08T13:02:12;96732.69;;;18.72;65.71
46724;BME280;32463;48.298;11.620;2023-05-08T13:04:39;96730.69;;;19.27;66.17
46724;BME280;32463;48.298;11.620;2023-05-08T13:07:06;96731.50;;;18.81;65.96
46724;BME280;32463;48.298;11.620;2023-05-08T13:09:32;96732.69;;;18.66;63.26
46724;BME280;32463;48.298;11.620;2023-05-08T13:11:59;96723.81;;;18.60;63.01
46724;BME280;32463;48.298;11.620;2023-05-08T13:14:25;96725.75;;;18.45;65.12
46724;BME280;32463;48.298;11.620;2023-05-08T13:16:52;96722.03;;;18.20;66.52
46724;BME280;32463;48.298;11.620;2023-05-08T13:19:18;96727.97;;;18.48;65.33
46724;BME280;32463;48.298;11.620;2023-05-08T13:21:44;96712.78;;;18.37;64.74
46724;BME280;32463;48.298;11.620;2023-05-08T13:24:11;96724.09;;;18.37;65.09
46724;BME280;32463;48.298;11.620;2023-05-08T13:26:38;96721.81;;;18.14;66.60
46724;BME280;32463;48.298;11.620;2023-05-08T13:29:04;96724.22;;;18.70;67.47
46724;BME280;32463;48.298;11.620;2023-05-08T13:31:31;96722.91;;;18.40;64.36